Terminal Aerodrome Forecast
Issued by NWS Mt. Holly, NJ

Home | Current Version | Previous Version | Text Only | Print | Product List | Glossary On
Versions: 1 2 3 4 5 6 7 8 9 10 11 12 13 14 15 16 17 18 19
827
FTUS41 KPHI 192322
TAFACY
TAF
KACY 192322Z 2000/2024 23004KT P6SM SCT110
     FM201000 29004KT P6SM FEW250
     FM202100 23006KT P6SM FEW250=

USA.gov is the U.S. government's official web portal to all federal, state and local government web resources and services.